sensor_id;sensor_type;location;lat;lon;timestamp;P1;durP1;ratioP1;P2;durP2;ratioP2
70247;SDS011;57641;51.416;5.506;2023-02-28T00:00:33;12.32;;;6.35;;
70247;SDS011;57641;51.416;5.506;2023-02-28T00:03:01;12.20;;;6.63;;
70247;SDS011;57641;51.416;5.506;2023-02-28T00:05:27;11.48;;;6.55;;
70247;SDS011;57641;51.416;5.506;2023-02-28T00:07:54;12.55;;;7.20;;
70247;SDS011;57641;51.416;5.506;2023-02-28T00:10:22;10.63;;;6.47;;
70247;SDS011;57641;51.416;5.506;2023-02-28T00:12:50;9.95;;;6.45;;
70247;SDS011;57641;51.416;5.506;2023-02-28T00:15:22;10.23;;;6.03;;
70247;SDS011;57641;51.416;5.506;2023-02-28T00:17:49;8.10;;;6.30;;
70247;SDS011;57641;51.416;5.506;2023-02-28T00:20:15;9.60;;;6.85;;
70247;SDS011;57641;51.416;5.506;2023-02-28T00:22:43;12.07;;;7.10;;
70247;SDS011;57641;51.416;5.506;2023-02-28T00:25:11;14.18;;;7.68;;
70247;SDS011;57641;51.416;5.506;2023-02-28T00:27:39;12.98;;;6.82;;
70247;SDS011;57641;51.416;5.506;2023-02-28T00:30:06;10.98;;;7.07;;
70247;SDS011;57641;51.416;5.506;2023-02-28T00:32:34;13.43;;;7.00;;
70247;SDS011;57641;51.416;5.506;2023-02-28T00:35:01;13.50;;;6.82;;
70247;SDS011;57641;51.416;5.506;2023-02-28T00:37:27;10.73;;;6.53;;
70247;SDS011;57641;51.416;5.506;2023-02-28T00:39:53;10.98;;;6.38;;
70247;SDS011;57641;51.416;5.506;2023-02-28T00:42:22;10.10;;;6.93;;
70247;SDS011;57641;51.416;5.506;2023-02-28T00:44:51;13.13;;;6.75;;
70247;SDS011;57641;51.416;5.506;2023-02-28T00:47:17;11.65;;;6.60;;
70247;SDS011;57641;51.416;5.506;2023-02-28T00:49:43;13.35;;;7.15;;
70247;SDS011;57641;51.416;5.506;2023-02-28T00:52:09;12.80;;;7.30;;
70247;SDS011;57641;51.416;5.506;2023-02-28T00:54:35;12.02;;;6.93;;
70247;SDS011;57641;51.416;5.506;2023-02-28T00:57:01;10.93;;;7.03;;
70247;SDS011;57641;51.416;5.506;2023-02-28T00:59:27;10.48;;;6.35;;
70247;SDS011;57641;51.416;5.506;2023-02-28T01:01:55;11.15;;;6.55;;
70247;SDS011;57641;51.416;5.506;2023-02-28T01:04:21;13.20;;;6.93;;
70247;SDS011;57641;51.416;5.506;2023-02-28T01:06:47;11.95;;;6.70;;
70247;SDS011;57641;51.416;5.506;2023-02-28T01:09:14;9.77;;;6.50;;
70247;SDS011;57641;51.416;5.506;2023-02-28T01:11:42;10.23;;;7.13;;
70247;SDS011;57641;51.416;5.506;2023-02-28T01:14:11;12.48;;;7.45;;
70247;SDS011;57641;51.416;5.506;2023-02-28T01:16:38;13.55;;;6.75;;
70247;SDS011;57641;51.416;5.506;2023-02-28T01:19:04;11.32;;;6.72;;
70247;SDS011;57641;51.416;5.506;2023-02-28T01:21:29;9.93;;;6.65;;
70247;SDS011;57641;51.416;5.506;2023-02-28T01:23:56;9.48;;;6.43;;
70247;SDS011;57641;51.416;5.506;2023-02-28T01:26:22;13.23;;;7.07;;
70247;SDS011;57641;51.416;5.506;2023-02-28T01:28:49;8.57;;;5.95;;
70247;SDS011;57641;51.416;5.506;2023-02-28T01:31:16;13.77;;;7.93;;
70247;SDS011;57641;51.416;5.506;2023-02-28T01:33:43;11.57;;;6.85;;
70247;SDS011;57641;51.416;5.506;2023-02-28T01:36:17;12.50;;;6.65;;
70247;SDS011;57641;51.416;5.506;2023-02-28T01:38:45;12.60;;;7.32;;
70247;SDS011;57641;51.416;5.506;2023-02-28T01:41:19;12.77;;;7.73;;
70247;SDS011;57641;51.416;5.506;2023-02-28T01:46:13;10.85;;;7.10;;
70247;SDS011;57641;51.416;5.506;2023-02-28T01:48:43;10.40;;;7.03;;
70247;SDS011;57641;51.416;5.506;2023-02-28T01:51:13;14.88;;;7.22;;
70247;SDS011;57641;51.416;5.506;2023-02-28T01:54:05;9.38;;;7.15;;
70247;SDS011;57641;51.416;5.506;2023-02-28T01:56:39;10.07;;;6.50;;
70247;SDS011;57641;51.416;5.506;2023-02-28T01:59:09;12.32;;;6.95;;
70247;SDS011;57641;51.416;5.506;2023-02-28T02:01:37;13.18;;;7.95;;
70247;SDS011;57641;51.416;5.506;2023-02-28T02:04:03;10.10;;;6.63;;
70247;SDS011;57641;51.416;5.506;2023-02-28T02:06:30;10.80;;;7.07;;
70247;SDS011;57641;51.416;5.506;2023-02-28T02:11:31;12.93;;;7.40;;
70247;SDS011;57641;51.416;5.506;2023-02-28T02:27:25;11.73;;;6.90;;
70247;SDS011;57641;51.416;5.506;2023-02-28T02:30:29;13.30;;;6.88;;
70247;SDS011;57641;51.416;5.506;2023-02-28T02:47:24;11.47;;;7.47;;
70247;SDS011;57641;51.416;5.506;2023-02-28T02:49:54;11.97;;;7.50;;
70247;SDS011;57641;51.416;5.506;2023-02-28T02:52:39;12.37;;;7.73;;
70247;SDS011;57641;51.416;5.506;2023-02-28T02:55:08;11.20;;;7.23;;
70247;SDS011;57641;51.416;5.506;2023-02-28T02:57:48;13.03;;;6.90;;
70247;SDS011;57641;51.416;5.506;2023-02-28T03:00:27;13.90;;;7.20;;
70247;SDS011;57641;51.416;5.506;2023-02-28T03:03:02;11.48;;;7.57;;
70247;SDS011;57641;51.416;5.506;2023-02-28T03:05:50;12.40;;;7.10;;
70247;SDS011;57641;51.416;5.506;2023-02-28T03:08:16;13.98;;;7.68;;
70247;SDS011;57641;51.416;5.506;2023-02-28T03:10:46;13.57;;;7.47;;
70247;SDS011;57641;51.416;5.506;2023-02-28T03:13:19;17.40;;;7.73;;
70247;SDS011;57641;51.416;5.506;2023-02-28T03:24:08;12.37;;;6.90;;
70247;SDS011;57641;51.416;5.506;2023-02-28T03:26:57;10.93;;;6.70;;
70247;SDS011;57641;51.416;5.506;2023-02-28T03:29:39;12.32;;;6.70;;
70247;SDS011;57641;51.416;5.506;2023-02-28T03:34:47;11.17;;;6.63;;
70247;SDS011;57641;51.416;5.506;2023-02-28T03:37:34;12.88;;;6.28;;
70247;SDS011;57641;51.416;5.506;2023-02-28T03:40:04;10.48;;;6.43;;
70247;SDS011;57641;51.416;5.506;2023-02-28T03:42:35;10.57;;;6.07;;
70247;SDS011;57641;51.416;5.506;2023-02-28T03:45:14;11.00;;;6.13;;
70247;SDS011;57641;51.416;5.506;2023-02-28T03:47:54;10.73;;;6.17;;
70247;SDS011;57641;51.416;5.506;2023-02-28T03:50:43;11.38;;;6.10;;
70247;SDS011;57641;51.416;5.506;2023-02-28T03:53:17;10.82;;;6.70;;
70247;SDS011;57641;51.416;5.506;2023-02-28T03:55:49;13.97;;;7.13;;
70247;SDS011;57641;51.416;5.506;2023-02-28T03:58:21;10.70;;;6.95;;
70247;SDS011;57641;51.416;5.506;2023-02-28T04:01:04;12.07;;;7.43;;
70247;SDS011;57641;51.416;5.506;2023-02-28T04:03:36;11.68;;;6.57;;
70247;SDS011;57641;51.416;5.506;2023-02-28T04:06:03;12.60;;;6.95;;
70247;SDS011;57641;51.416;5.506;2023-02-28T04:08:31;11.07;;;6.68;;
70247;SDS011;57641;51.416;5.506;2023-02-28T04:11:01;13.73;;;7.30;;
70247;SDS011;57641;51.416;5.506;2023-02-28T04:13:32;13.60;;;6.80;;
70247;SDS011;57641;51.416;5.506;2023-02-28T04:15:57;10.35;;;6.28;;
70247;SDS011;57641;51.416;5.506;2023-02-28T04:18:23;10.70;;;7.28;;
70247;SDS011;57641;51.416;5.506;2023-02-28T04:20:48;12.82;;;6.47;;
70247;SDS011;57641;51.416;5.506;2023-02-28T04:23:14;11.38;;;6.55;;
70247;SDS011;57641;51.416;5.506;2023-02-28T04:25:40;11.68;;;6.53;;
70247;SDS011;57641;51.416;5.506;2023-02-28T04:28:06;10.27;;;6.15;;
70247;SDS011;57641;51.416;5.506;2023-02-28T04:30:32;13.48;;;6.80;;
70247;SDS011;57641;51.416;5.506;2023-02-28T04:32:58;10.48;;;6.30;;
70247;SDS011;57641;51.416;5.506;2023-02-28T04:35:23;11.90;;;7.55;;
70247;SDS011;57641;51.416;5.506;2023-02-28T04:37:49;15.68;;;7.40;;
70247;SDS011;57641;51.416;5.506;2023-02-28T04:40:15;11.20;;;7.20;;
70247;SDS011;57641;51.416;5.506;2023-02-28T04:42:44;11.75;;;6.68;;
70247;SDS011;57641;51.416;5.506;2023-02-28T04:45:13;10.98;;;6.45;;
70247;SDS011;57641;51.416;5.506;2023-02-28T04:47:38;11.05;;;6.90;;
70247;SDS011;57641;51.416;5.506;2023-02-28T04:50:04;13.82;;;7.45;;
70247;SDS011;57641;51.416;5.506;2023-02-28T04:52:29;13.03;;;6.97;;
70247;SDS011;57641;51.416;5.506;2023-02-28T04:54:55;12.82;;;7.53;;
70247;SDS011;57641;51.416;5.506;2023-02-28T04:57:20;13.57;;;6.93;;
70247;SDS011;57641;51.416;5.506;2023-02-28T04:59:49;11.13;;;7.13;;
70247;SDS011;57641;51.416;5.506;2023-02-28T05:02:14;11.18;;;6.85;;
70247;SDS011;57641;51.416;5.506;2023-02-28T05:04:40;11.55;;;6.55;;
70247;SDS011;57641;51.416;5.506;2023-02-28T05:07:05;12.05;;;6.53;;
70247;SDS011;57641;51.416;5.506;2023-02-28T05:09:31;10.27;;;6.63;;
70247;SDS011;57641;51.416;5.506;2023-02-28T05:11:58;12.43;;;6.63;;
70247;SDS011;57641;51.416;5.506;2023-02-28T05:14:23;12.77;;;6.20;;
70247;SDS011;57641;51.416;5.506;2023-02-28T05:16:49;9.93;;;5.70;;
70247;SDS011;57641;51.416;5.506;2023-02-28T05:19:14;11.70;;;6.68;;
70247;SDS011;57641;51.416;5.506;2023-02-28T05:21:41;9.18;;;6.00;;
70247;SDS011;57641;51.416;5.506;2023-02-28T05:24:14;12.18;;;5.82;;
70247;SDS011;57641;51.416;5.506;2023-02-28T05:26:42;10.70;;;6.03;;
70247;SDS011;57641;51.416;5.506;2023-02-28T05:29:09;10.35;;;6.20;;
70247;SDS011;57641;51.416;5.506;2023-02-28T05:31:38;11.68;;;6.35;;
70247;SDS011;57641;51.416;5.506;2023-02-28T05:34:04;10.93;;;6.05;;
70247;SDS011;57641;51.416;5.506;2023-02-28T05:36:31;10.23;;;5.70;;
70247;SDS011;57641;51.416;5.506;2023-02-28T05:38:59;9.38;;;5.68;;
70247;SDS011;57641;51.416;5.506;2023-02-28T05:41:25;11.38;;;5.88;;
70247;SDS011;57641;51.416;5.506;2023-02-28T05:43:51;9.88;;;4.97;;
70247;SDS011;57641;51.416;5.506;2023-02-28T05:46:17;9.43;;;5.43;;
70247;SDS011;57641;51.416;5.506;2023-02-28T05:48:45;10.20;;;5.25;;
70247;SDS011;57641;51.416;5.506;2023-02-28T05:51:11;11.95;;;4.55;;
70247;SDS011;57641;51.416;5.506;2023-02-28T05:53:37;8.02;;;5.90;;
70247;SDS011;57641;51.416;5.506;2023-02-28T05:56:06;9.77;;;5.18;;
70247;SDS011;57641;51.416;5.506;2023-02-28T05:58:34;8.55;;;4.55;;
70247;SDS011;57641;51.416;5.506;2023-02-28T06:01:00;9.05;;;4.93;;
70247;SDS011;57641;51.416;5.506;2023-02-28T06:03:49;8.88;;;5.18;;
70247;SDS011;57641;51.416;5.506;2023-02-28T06:06:15;9.93;;;5.22;;
70247;SDS011;57641;51.416;5.506;2023-02-28T06:08:40;7.85;;;4.60;;
70247;SDS011;57641;51.416;5.506;2023-02-28T06:11:08;9.20;;;5.43;;
70247;SDS011;57641;51.416;5.506;2023-02-28T06:13:34;11.00;;;5.55;;
70247;SDS011;57641;51.416;5.506;2023-02-28T06:16:06;8.57;;;4.75;;
70247;SDS011;57641;51.416;5.506;2023-02-28T06:18:33;10.00;;;5.38;;
70247;SDS011;57641;51.416;5.506;2023-02-28T06:20:58;9.48;;;5.13;;
70247;SDS011;57641;51.416;5.506;2023-02-28T06:23:24;7.90;;;4.95;;
70247;SDS011;57641;51.416;5.506;2023-02-28T06:25:49;9.68;;;4.75;;
70247;SDS011;57641;51.416;5.506;2023-02-28T06:28:15;7.78;;;5.25;;
70247;SDS011;57641;51.416;5.506;2023-02-28T06:30:41;6.53;;;4.55;;
70247;SDS011;57641;51.416;5.506;2023-02-28T06:33:06;11.35;;;5.80;;
70247;SDS011;57641;51.416;5.506;2023-02-28T06:35:32;8.05;;;5.43;;
70247;SDS011;57641;51.416;5.506;2023-02-28T06:37:57;8.30;;;4.78;;
70247;SDS011;57641;51.416;5.506;2023-02-28T06:40:23;10.57;;;5.68;;
70247;SDS011;57641;51.416;5.506;2023-02-28T06:42:48;10.38;;;5.63;;
70247;SDS011;57641;51.416;5.506;2023-02-28T06:45:14;9.63;;;5.47;;
70247;SDS011;57641;51.416;5.506;2023-02-28T06:47:40;9.60;;;5.55;;
70247;SDS011;57641;51.416;5.506;2023-02-28T06:50:08;10.57;;;5.43;;
70247;SDS011;57641;51.416;5.506;2023-02-28T06:52:35;10.43;;;5.07;;
70247;SDS011;57641;51.416;5.506;2023-02-28T06:55:07;9.45;;;4.95;;
70247;SDS011;57641;51.416;5.506;2023-02-28T06:57:34;7.80;;;4.28;;
70247;SDS011;57641;51.416;5.506;2023-02-28T07:00:01;7.78;;;4.20;;
70247;SDS011;57641;51.416;5.506;2023-02-28T07:02:32;8.27;;;4.95;;
70247;SDS011;57641;51.416;5.506;2023-02-28T07:04:59;7.50;;;4.78;;
70247;SDS011;57641;51.416;5.506;2023-02-28T07:07:25;5.40;;;4.43;;
70247;SDS011;57641;51.416;5.506;2023-02-28T07:09:50;7.07;;;4.80;;
70247;SDS011;57641;51.416;5.506;2023-02-28T07:12:16;7.88;;;4.38;;
70247;SDS011;57641;51.416;5.506;2023-02-28T07:14:45;8.27;;;4.57;;
70247;SDS011;57641;51.416;5.506;2023-02-28T07:17:10;6.10;;;4.07;;
70247;SDS011;57641;51.416;5.506;2023-02-28T07:19:37;6.07;;;4.80;;
70247;SDS011;57641;51.416;5.506;2023-02-28T07:22:04;9.30;;;4.28;;
70247;SDS011;57641;51.416;5.506;2023-02-28T07:24:30;5.45;;;3.63;;
70247;SDS011;57641;51.416;5.506;2023-02-28T07:26:55;5.97;;;4.05;;
70247;SDS011;57641;51.416;5.506;2023-02-28T07:29:21;6.40;;;4.38;;
70247;SDS011;57641;51.416;5.506;2023-02-28T07:31:47;5.90;;;3.92;;
70247;SDS011;57641;51.416;5.506;2023-02-28T07:34:13;11.20;;;4.20;;
70247;SDS011;57641;51.416;5.506;2023-02-28T07:36:41;6.70;;;4.07;;
70247;SDS011;57641;51.416;5.506;2023-02-28T07:39:07;6.22;;;3.30;;
70247;SDS011;57641;51.416;5.506;2023-02-28T07:41:35;8.68;;;4.10;;
70247;SDS011;57641;51.416;5.506;2023-02-28T07:44:04;5.95;;;3.85;;
70247;SDS011;57641;51.416;5.506;2023-02-28T07:46:30;4.80;;;3.13;;
70247;SDS011;57641;51.416;5.506;2023-02-28T07:49:00;6.72;;;3.92;;
70247;SDS011;57641;51.416;5.506;2023-02-28T07:51:28;4.57;;;3.08;;
70247;SDS011;57641;51.416;5.506;2023-02-28T07:53:54;7.43;;;3.63;;
70247;SDS011;57641;51.416;5.506;2023-02-28T07:56:21;5.50;;;3.42;;
70247;SDS011;57641;51.416;5.506;2023-02-28T07:58:46;5.18;;;3.25;;
70247;SDS011;57641;51.416;5.506;2023-02-28T08:01:12;6.15;;;3.50;;
70247;SDS011;57641;51.416;5.506;2023-02-28T08:03:38;6.55;;;3.20;;
70247;SDS011;57641;51.416;5.506;2023-02-28T08:06:05;6.55;;;3.30;;
70247;SDS011;57641;51.416;5.506;2023-02-28T08:08:32;4.35;;;2.58;;
70247;SDS011;57641;51.416;5.506;2023-02-28T08:11:02;5.40;;;2.92;;
70247;SDS011;57641;51.416;5.506;2023-02-28T08:13:29;4.53;;;2.53;;
70247;SDS011;57641;51.416;5.506;2023-02-28T08:15:55;2.83;;;2.30;;
70247;SDS011;57641;51.416;5.506;2023-02-28T08:18:21;3.60;;;2.60;;
70247;SDS011;57641;51.416;5.506;2023-02-28T08:20:47;4.07;;;2.60;;
70247;SDS011;57641;51.416;5.506;2023-02-28T08:23:13;4.72;;;2.60;;
70247;SDS011;57641;51.416;5.506;2023-02-28T08:25:39;4.45;;;2.50;;
70247;SDS011;57641;51.416;5.506;2023-02-28T08:28:04;3.78;;;2.20;;
70247;SDS011;57641;51.416;5.506;2023-02-28T08:30:30;4.85;;;2.47;;
70247;SDS011;57641;51.416;5.506;2023-02-28T08:32:56;4.03;;;2.10;;
70247;SDS011;57641;51.416;5.506;2023-02-28T08:35:21;2.65;;;2.00;;
70247;SDS011;57641;51.416;5.506;2023-02-28T08:37:48;2.95;;;2.03;;
70247;SDS011;57641;51.416;5.506;2023-02-28T08:40:14;4.38;;;2.15;;
70247;SDS011;57641;51.416;5.506;2023-02-28T08:42:46;2.60;;;1.98;;
70247;SDS011;57641;51.416;5.506;2023-02-28T08:45:13;3.20;;;1.83;;
70247;SDS011;57641;51.416;5.506;2023-02-28T08:47:40;4.70;;;2.28;;
70247;SDS011;57641;51.416;5.506;2023-02-28T08:50:06;3.70;;;2.17;;
70247;SDS011;57641;51.416;5.506;2023-02-28T08:52:32;4.13;;;2.25;;
70247;SDS011;57641;51.416;5.506;2023-02-28T08:54:58;3.95;;;2.72;;
70247;SDS011;57641;51.416;5.506;2023-02-28T08:57:23;2.70;;;1.95;;
70247;SDS011;57641;51.416;5.506;2023-02-28T08:59:51;1.95;;;1.63;;
70247;SDS011;57641;51.416;5.506;2023-02-28T09:02:17;2.80;;;2.13;;
70247;SDS011;57641;51.416;5.506;2023-02-28T09:04:43;2.72;;;2.10;;
70247;SDS011;57641;51.416;5.506;2023-02-28T09:07:10;3.03;;;1.70;;
70247;SDS011;57641;51.416;5.506;2023-02-28T09:09:37;3.72;;;1.90;;
70247;SDS011;57641;51.416;5.506;2023-02-28T09:12:03;3.25;;;1.90;;
70247;SDS011;57641;51.416;5.506;2023-02-28T09:14:30;3.38;;;2.00;;
70247;SDS011;57641;51.416;5.506;2023-02-28T09:16:56;2.05;;;1.50;;
70247;SDS011;57641;51.416;5.506;2023-02-28T09:19:21;3.70;;;2.05;;
70247;SDS011;57641;51.416;5.506;2023-02-28T09:21:47;2.40;;;1.45;;
70247;SDS011;57641;51.416;5.506;2023-02-28T09:24:12;1.98;;;1.80;;
70247;SDS011;57641;51.416;5.506;2023-02-28T09:26:40;2.05;;;1.65;;
70247;SDS011;57641;51.416;5.506;2023-02-28T09:29:06;2.60;;;2.00;;
70247;SDS011;57641;51.416;5.506;2023-02-28T09:31:32;2.55;;;1.85;;
70247;SDS011;57641;51.416;5.506;2023-02-28T09:33:57;2.55;;;1.70;;
70247;SDS011;57641;51.416;5.506;2023-02-28T09:36:25;2.00;;;1.90;;
70247;SDS011;57641;51.416;5.506;2023-02-28T09:38:51;2.90;;;1.75;;
70247;SDS011;57641;51.416;5.506;2023-02-28T09:43:44;4.03;;;1.58;;
70247;SDS011;57641;51.416;5.506;2023-02-28T09:49:16;1.90;;;1.80;;
70247;SDS011;57641;51.416;5.506;2023-02-28T09:54:28;2.40;;;1.80;;
70247;SDS011;57641;51.416;5.506;2023-02-28T09:56:58;2.35;;;1.92;;
70247;SDS011;57641;51.416;5.506;2023-02-28T09:59:44;1.67;;;1.40;;
70247;SDS011;57641;51.416;5.506;2023-02-28T10:05:12;1.67;;;1.52;;
70247;SDS011;57641;51.416;5.506;2023-02-28T10:13:24;2.38;;;1.90;;
70247;SDS011;57641;51.416;5.506;2023-02-28T10:15:54;2.42;;;1.30;;
70247;SDS011;57641;51.416;5.506;2023-02-28T10:18:27;1.80;;;1.38;;
70247;SDS011;57641;51.416;5.506;2023-02-28T10:21:00;3.80;;;1.50;;
70247;SDS011;57641;51.416;5.506;2023-02-28T10:23:34;1.55;;;1.38;;
70247;SDS011;57641;51.416;5.506;2023-02-28T10:26:09;2.03;;;1.83;;
70247;SDS011;57641;51.416;5.506;2023-02-28T10:28:41;1.55;;;1.40;;
70247;SDS011;57641;51.416;5.506;2023-02-28T10:31:10;3.15;;;2.15;;
70247;SDS011;57641;51.416;5.506;2023-02-28T10:33:37;3.22;;;1.75;;
70247;SDS011;57641;51.416;5.506;2023-02-28T10:36:03;2.05;;;1.80;;
70247;SDS011;57641;51.416;5.506;2023-02-28T10:38:36;3.17;;;1.95;;
70247;SDS011;57641;51.416;5.506;2023-02-28T10:41:36;2.40;;;1.63;;
70247;SDS011;57641;51.416;5.506;2023-02-28T10:46:42;2.63;;;1.60;;
70247;SDS011;57641;51.416;5.506;2023-02-28T10:49:17;1.95;;;1.40;;
70247;SDS011;57641;51.416;5.506;2023-02-28T10:51:47;4.30;;;1.92;;
70247;SDS011;57641;51.416;5.506;2023-02-28T10:54:28;2.80;;;1.50;;
70247;SDS011;57641;51.416;5.506;2023-02-28T11:08:06;2.05;;;1.40;;
70247;SDS011;57641;51.416;5.506;2023-02-28T11:10:39;1.55;;;1.35;;
70247;SDS011;57641;51.416;5.506;2023-02-28T11:13:15;2.00;;;1.38;;
70247;SDS011;57641;51.416;5.506;2023-02-28T11:15:45;3.42;;;1.80;;
70247;SDS011;57641;51.416;5.506;2023-02-28T11:21:00;4.13;;;2.20;;
70247;SDS011;57641;51.416;5.506;2023-02-28T11:23:29;6.35;;;3.13;;
70247;SDS011;57641;51.416;5.506;2023-02-28T11:25:59;2.58;;;2.35;;
70247;SDS011;57641;51.416;5.506;2023-02-28T11:28:28;1.92;;;1.70;;
70247;SDS011;57641;51.416;5.506;2023-02-28T11:31:08;3.58;;;1.88;;
70247;SDS011;57641;51.416;5.506;2023-02-28T11:33:43;3.28;;;1.75;;
70247;SDS011;57641;51.416;5.506;2023-02-28T11:38:45;3.92;;;1.73;;
70247;SDS011;57641;51.416;5.506;2023-02-28T11:44:23;2.25;;;1.95;;
70247;SDS011;57641;51.416;5.506;2023-02-28T11:47:03;1.80;;;1.48;;
70247;SDS011;57641;51.416;5.506;2023-02-28T11:52:20;3.85;;;1.85;;
70247;SDS011;57641;51.416;5.506;2023-02-28T11:55:16;2.17;;;1.70;;
70247;SDS011;57641;51.416;5.506;2023-02-28T12:06:33;2.95;;;1.73;;
70247;SDS011;57641;51.416;5.506;2023-02-28T12:09:20;2.58;;;1.77;;
70247;SDS011;57641;51.416;5.506;2023-02-28T12:12:33;2.38;;;1.52;;
70247;SDS011;57641;51.416;5.506;2023-02-28T12:22:45;2.75;;;2.08;;
70247;SDS011;57641;51.416;5.506;2023-02-28T12:28:14;2.92;;;2.13;;
70247;SDS011;57641;51.416;5.506;2023-02-28T12:30:49;3.78;;;2.20;;
70247;SDS011;57641;51.416;5.506;2023-02-28T12:33:22;3.38;;;2.00;;
70247;SDS011;57641;51.416;5.506;2023-02-28T12:35:57;3.40;;;2.20;;
70247;SDS011;57641;51.416;5.506;2023-02-28T12:38:27;3.40;;;2.10;;
70247;SDS011;57641;51.416;5.506;2023-02-28T12:41:00;2.50;;;2.25;;
70247;SDS011;57641;51.416;5.506;2023-02-28T12:43:43;2.97;;;1.95;;
70247;SDS011;57641;51.416;5.506;2023-02-28T12:46:19;2.90;;;2.10;;
70247;SDS011;57641;51.416;5.506;2023-02-28T12:48:52;3.17;;;1.85;;
70247;SDS011;57641;51.416;5.506;2023-02-28T12:51:22;2.42;;;1.83;;
70247;SDS011;57641;51.416;5.506;2023-02-28T12:59:21;2.50;;;1.70;;
70247;SDS011;57641;51.416;5.506;2023-02-28T13:04:34;2.80;;;1.83;;
70247;SDS011;57641;51.416;5.506;2023-02-28T13:09:59;3.35;;;1.90;;
70247;SDS011;57641;51.416;5.506;2023-02-28T13:12:28;3.80;;;2.00;;
70247;SDS011;57641;51.416;5.506;2023-02-28T13:17:37;3.90;;;2.17;;
70247;SDS011;57641;51.416;5.506;2023-02-28T13:20:04;3.28;;;2.10;;
70247;SDS011;57641;51.416;5.506;2023-02-28T13:22:45;3.28;;;2.35;;
70247;SDS011;57641;51.416;5.506;2023-02-28T13:27:49;4.90;;;2.20;;
70247;SDS011;57641;51.416;5.506;2023-02-28T13:38:59;3.20;;;2.08;;
70247;SDS011;57641;51.416;5.506;2023-02-28T13:44:00;2.90;;;2.20;;
70247;SDS011;57641;51.416;5.506;2023-02-28T13:46:30;3.13;;;2.15;;
70247;SDS011;57641;51.416;5.506;2023-02-28T13:48:57;2.40;;;2.00;;
70247;SDS011;57641;51.416;5.506;2023-02-28T14:01:15;4.20;;;2.47;;
70247;SDS011;57641;51.416;5.506;2023-02-28T14:06:37;3.03;;;2.30;;
70247;SDS011;57641;51.416;5.506;2023-02-28T14:11:38;2.92;;;2.28;;
70247;SDS011;57641;51.416;5.506;2023-02-28T14:14:06;3.03;;;2.00;;
70247;SDS011;57641;51.416;5.506;2023-02-28T14:16:37;2.45;;;1.80;;
70247;SDS011;57641;51.416;5.506;2023-02-28T14:19:28;2.90;;;2.67;;
70247;SDS011;57641;51.416;5.506;2023-02-28T14:27:29;4.45;;;2.63;;
70247;SDS011;57641;51.416;5.506;2023-02-28T14:32:37;2.38;;;2.17;;
70247;SDS011;57641;51.416;5.506;2023-02-28T14:38:17;3.85;;;2.53;;
70247;SDS011;57641;51.416;5.506;2023-02-28T14:40:46;4.65;;;2.20;;
70247;SDS011;57641;51.416;5.506;2023-02-28T14:43:22;3.47;;;2.63;;
70247;SDS011;57641;51.416;5.506;2023-02-28T14:45:54;3.83;;;2.40;;
70247;SDS011;57641;51.416;5.506;2023-02-28T14:48:24;3.42;;;2.65;;
70247;SDS011;57641;51.416;5.506;2023-02-28T14:51:01;3.58;;;2.90;;
70247;SDS011;57641;51.416;5.506;2023-02-28T14:53:30;3.85;;;2.40;;
70247;SDS011;57641;51.416;5.506;2023-02-28T14:56:01;4.50;;;2.90;;
70247;SDS011;57641;51.416;5.506;2023-02-28T14:58:29;3.47;;;2.65;;
70247;SDS011;57641;51.416;5.506;2023-02-28T15:01:00;3.25;;;2.70;;
70247;SDS011;57641;51.416;5.506;2023-02-28T15:03:35;3.75;;;2.60;;
70247;SDS011;57641;51.416;5.506;2023-02-28T15:06:11;3.72;;;2.45;;
70247;SDS011;57641;51.416;5.506;2023-02-28T15:08:39;2.80;;;2.40;;
70247;SDS011;57641;51.416;5.506;2023-02-28T15:11:06;3.47;;;2.40;;
70247;SDS011;57641;51.416;5.506;2023-02-28T15:13:39;2.83;;;2.58;;
70247;SDS011;57641;51.416;5.506;2023-02-28T15:16:11;2.83;;;2.50;;
70247;SDS011;57641;51.416;5.506;2023-02-28T15:21:17;3.40;;;2.50;;
70247;SDS011;57641;51.416;5.506;2023-02-28T15:23:46;4.60;;;2.80;;
70247;SDS011;57641;51.416;5.506;2023-02-28T15:26:20;3.33;;;2.45;;
70247;SDS011;57641;51.416;5.506;2023-02-28T15:28:54;4.03;;;2.53;;
70247;SDS011;57641;51.416;5.506;2023-02-28T15:31:29;3.75;;;2.38;;
70247;SDS011;57641;51.416;5.506;2023-02-28T15:34:02;2.53;;;2.22;;
70247;SDS011;57641;51.416;5.506;2023-02-28T15:36:30;2.75;;;2.17;;
70247;SDS011;57641;51.416;5.506;2023-02-28T15:38:59;3.03;;;2.35;;
70247;SDS011;57641;51.416;5.506;2023-02-28T15:41:27;3.47;;;2.28;;
70247;SDS011;57641;51.416;5.506;2023-02-28T15:49:32;3.78;;;2.20;;
70247;SDS011;57641;51.416;5.506;2023-02-28T15:52:12;7.88;;;2.90;;
70247;SDS011;57641;51.416;5.506;2023-02-28T15:54:43;3.65;;;2.63;;
70247;SDS011;57641;51.416;5.506;2023-02-28T15:57:13;2.72;;;2.28;;
70247;SDS011;57641;51.416;5.506;2023-02-28T15:59:45;3.17;;;2.15;;
70247;SDS011;57641;51.416;5.506;2023-02-28T16:02:20;3.13;;;2.42;;
70247;SDS011;57641;51.416;5.506;2023-02-28T16:04:55;4.13;;;2.40;;
70247;SDS011;57641;51.416;5.506;2023-02-28T16:07:40;2.83;;;2.35;;
70247;SDS011;57641;51.416;5.506;2023-02-28T16:10:08;2.65;;;2.17;;
70247;SDS011;57641;51.416;5.506;2023-02-28T16:12:42;3.15;;;2.40;;
70247;SDS011;57641;51.416;5.506;2023-02-28T16:15:19;3.55;;;2.55;;
70247;SDS011;57641;51.416;5.506;2023-02-28T16:17:48;2.90;;;2.30;;
70247;SDS011;57641;51.416;5.506;2023-02-28T16:22:44;4.25;;;2.40;;
70247;SDS011;57641;51.416;5.506;2023-02-28T16:25:11;4.43;;;2.40;;
70247;SDS011;57641;51.416;5.506;2023-02-28T16:27:38;3.47;;;2.47;;
70247;SDS011;57641;51.416;5.506;2023-02-28T16:30:05;5.60;;;2.47;;
70247;SDS011;57641;51.416;5.506;2023-02-28T16:32:33;2.67;;;2.28;;
70247;SDS011;57641;51.416;5.506;2023-02-28T16:35:01;4.40;;;2.70;;
70247;SDS011;57641;51.416;5.506;2023-02-28T16:37:27;3.50;;;2.85;;
70247;SDS011;57641;51.416;5.506;2023-02-28T16:39:56;3.25;;;2.60;;
70247;SDS011;57641;51.416;5.506;2023-02-28T16:42:25;3.40;;;2.75;;
70247;SDS011;57641;51.416;5.506;2023-02-28T16:44:54;2.97;;;2.40;;
70247;SDS011;57641;51.416;5.506;2023-02-28T16:47:23;3.78;;;2.83;;
70247;SDS011;57641;51.416;5.506;2023-02-28T16:49:52;4.03;;;2.72;;
70247;SDS011;57641;51.416;5.506;2023-02-28T16:52:18;3.60;;;2.60;;
70247;SDS011;57641;51.416;5.506;2023-02-28T16:54:43;3.10;;;2.53;;
70247;SDS011;57641;51.416;5.506;2023-02-28T16:57:20;4.97;;;2.83;;
70247;SDS011;57641;51.416;5.506;2023-02-28T16:59:48;4.68;;;2.50;;
70247;SDS011;57641;51.416;5.506;2023-02-28T17:02:18;4.07;;;2.50;;
70247;SDS011;57641;51.416;5.506;2023-02-28T17:04:45;3.05;;;2.08;;
70247;SDS011;57641;51.416;5.506;2023-02-28T17:07:12;2.92;;;2.47;;
70247;SDS011;57641;51.416;5.506;2023-02-28T17:09:41;3.80;;;2.20;;
70247;SDS011;57641;51.416;5.506;2023-02-28T17:12:09;3.05;;;2.38;;
70247;SDS011;57641;51.416;5.506;2023-02-28T17:14:36;2.83;;;1.92;;
70247;SDS011;57641;51.416;5.506;2023-02-28T17:17:04;2.38;;;2.17;;
70247;SDS011;57641;51.416;5.506;2023-02-28T17:19:31;3.85;;;2.40;;
70247;SDS011;57641;51.416;5.506;2023-02-28T17:21:56;3.00;;;2.33;;
70247;SDS011;57641;51.416;5.506;2023-02-28T17:24:25;3.80;;;2.35;;
70247;SDS011;57641;51.416;5.506;2023-02-28T17:26:50;4.28;;;2.58;;
70247;SDS011;57641;51.416;5.506;2023-02-28T17:29:17;4.13;;;2.50;;
70247;SDS011;57641;51.416;5.506;2023-02-28T17:31:45;3.10;;;2.33;;
70247;SDS011;57641;51.416;5.506;2023-02-28T17:34:11;3.70;;;2.72;;
70247;SDS011;57641;51.416;5.506;2023-02-28T17:36:43;3.38;;;2.38;;
70247;SDS011;57641;51.416;5.506;2023-02-28T17:39:11;4.38;;;3.00;;
70247;SDS011;57641;51.416;5.506;2023-02-28T17:41:44;3.88;;;2.30;;
70247;SDS011;57641;51.416;5.506;2023-02-28T17:44:10;7.53;;;2.58;;
70247;SDS011;57641;51.416;5.506;2023-02-28T17:46:36;6.47;;;2.95;;